createdAt,value
2019-01-24T00:00:24.994Z,29.27
2019-01-24T00:02:54.324Z,27.27
2019-01-24T00:05:23.394Z,27.15
2019-01-24T00:07:52.509Z,30.40
2019-01-24T00:10:21.610Z,25.60
2019-01-24T00:12:50.681Z,27.48
2019-01-24T00:15:19.798Z,27.87
2019-01-24T00:17:49.207Z,27.37
2019-01-24T00:20:18.277Z,27.85
2019-01-24T00:22:47.638Z,29.25
2019-01-24T00:25:16.704Z,28.70
2019-01-24T00:27:48.775Z,27.37
2019-01-24T00:30:18.273Z,27.95
2019-01-24T00:32:47.360Z,28.20
2019-01-24T00:35:16.438Z,32.38
2019-01-24T00:37:45.644Z,27.65
2019-01-24T00:40:20.632Z,27.65
2019-01-24T00:42:49.747Z,32.35
2019-01-24T00:45:19.195Z,28.47
2019-01-24T00:47:48.271Z,31.60
2019-01-24T00:50:18.513Z,30.65
2019-01-24T00:52:47.625Z,27.37
2019-01-24T00:55:17.184Z,26.90
2019-01-24T00:57:46.622Z,26.62
2019-01-24T01:00:25.507Z,26.90
2019-01-24T01:02:54.589Z,27.05
2019-01-24T01:05:23.931Z,28.47
2019-01-24T01:07:53.048Z,27.50
2019-01-24T01:10:22.451Z,28.30
2019-01-24T01:12:51.521Z,26.75
2019-01-24T01:15:20.637Z,27.50
2019-01-24T01:17:49.725Z,27.62
2019-01-24T01:20:23.017Z,27.60
2019-01-24T01:22:52.131Z,28.38
2019-01-24T01:25:21.204Z,28.30
2019-01-24T01:27:50.616Z,26.65
2019-01-24T01:30:24.229Z,27.82
2019-01-24T01:32:53.717Z,28.45
2019-01-24T01:35:22.795Z,30.65
2019-01-24T01:37:51.924Z,27.82
2019-01-24T01:40:21.020Z,27.02
2019-01-24T01:42:50.105Z,29.32
2019-01-24T01:45:21.538Z,28.87
2019-01-24T01:47:50.939Z,27.60
2019-01-24T01:50:23.478Z,27.67
2019-01-24T01:52:52.840Z,27.55
2019-01-24T01:55:21.922Z,27.02
2019-01-24T01:57:51.788Z,29.25
2019-01-24T02:00:24.048Z,28.55
2019-01-24T02:02:53.119Z,27.15
2019-01-24T02:05:22.436Z,26.77
2019-01-24T02:07:51.590Z,27.45
2019-01-24T02:10:23.717Z,26.97
2019-01-24T02:12:53.058Z,26.73
2019-01-24T02:15:22.204Z,28.40
2019-01-24T02:17:51.568Z,27.93
2019-01-24T02:20:23.365Z,26.55
2019-01-24T02:22:53.326Z,26.12
2019-01-24T02:25:22.406Z,27.15
2019-01-24T02:27:51.541Z,28.85
2019-01-24T02:30:29.673Z,28.32
2019-01-24T02:32:59.042Z,30.95
2019-01-24T02:35:28.500Z,27.10
2019-01-24T02:37:57.574Z,27.40
2019-01-24T02:40:26.659Z,28.10
2019-01-24T02:42:56.021Z,27.65
2019-01-24T02:45:25.413Z,28.42
2019-01-24T02:47:54.551Z,27.60
2019-01-24T02:50:24.089Z,26.42
2019-01-24T02:52:53.212Z,28.83
2019-01-24T02:55:22.276Z,26.95
2019-01-24T02:57:51.629Z,28.45
2019-01-24T03:00:23.575Z,28.60
2019-01-24T03:02:52.646Z,27.70
2019-01-24T03:05:23.724Z,28.87
2019-01-24T03:07:53.316Z,27.50
2019-01-24T03:10:22.388Z,28.42
2019-01-24T03:12:51.490Z,28.45
2019-01-24T03:15:22.741Z,27.20
2019-01-24T03:17:51.878Z,28.62
2019-01-24T03:20:21.082Z,28.25
2019-01-24T03:22:50.424Z,29.55
2019-01-24T03:25:19.766Z,27.82
2019-01-24T03:27:49.186Z,28.00
2019-01-24T03:30:21.043Z,28.80
2019-01-24T03:32:50.153Z,27.95
2019-01-24T03:35:25.520Z,30.45
2019-01-24T03:37:54.626Z,28.20
2019-01-24T03:40:43.171Z,27.58
2019-01-24T03:43:12.504Z,29.20
2019-01-24T03:45:41.584Z,28.85
2019-01-24T03:48:10.753Z,28.40
2019-01-24T03:50:40.114Z,27.05
2019-01-24T03:53:09.189Z,28.47
2019-01-24T03:55:38.311Z,28.23
2019-01-24T03:58:07.692Z,32.08
2019-01-24T04:00:37.106Z,29.70
2019-01-24T04:03:06.603Z,30.08
2019-01-24T04:05:35.668Z,27.37
2019-01-24T04:08:04.754Z,29.35
2019-01-24T04:10:34.110Z,33.08
2019-01-24T04:13:03.490Z,27.58
2019-01-24T04:15:33.135Z,28.98
2019-01-24T04:18:02.608Z,28.42
2019-01-24T04:20:31.700Z,27.07
2019-01-24T04:23:01.114Z,27.65
2019-01-24T04:25:30.235Z,29.40
2019-01-24T04:27:59.307Z,29.35
2019-01-24T04:30:28.702Z,29.10
2019-01-24T04:32:58.132Z,30.43
2019-01-24T04:35:27.200Z,27.62
2019-01-24T04:37:56.303Z,28.17
2019-01-24T04:40:25.430Z,27.58
2019-01-24T04:42:54.491Z,26.05
2019-01-24T04:45:23.884Z,28.80
2019-01-24T04:47:53.281Z,28.12
2019-01-24T04:50:22.359Z,29.80
2019-01-24T04:52:51.423Z,29.27
2019-01-24T04:55:20.891Z,29.35
2019-01-24T04:57:49.963Z,24.75
2019-01-24T05:00:29.395Z,28.32
2019-01-24T05:02:58.478Z,29.48
2019-01-24T05:05:28.229Z,29.35
2019-01-24T05:07:57.591Z,28.85
2019-01-24T05:10:26.935Z,31.02
2019-01-24T05:12:56.317Z,27.55
2019-01-24T05:15:25.448Z,28.45
2019-01-24T05:17:54.517Z,27.87
2019-01-24T05:20:23.910Z,27.90
2019-01-24T05:22:53.056Z,33.25
2019-01-24T05:25:22.164Z,30.00
2019-01-24T05:27:51.262Z,28.05
2019-01-24T05:30:25.834Z,33.75
2019-01-24T05:32:55.497Z,30.12
2019-01-24T05:35:25.159Z,29.82
2019-01-24T05:37:54.346Z,32.13
2019-01-24T05:40:23.662Z,30.95
2019-01-24T05:42:52.763Z,28.98
2019-01-24T05:45:21.886Z,29.77
2019-01-24T05:47:51.242Z,27.00
2019-01-24T05:50:20.308Z,28.60
2019-01-24T05:52:49.460Z,29.10
2019-01-24T05:55:18.534Z,31.17
2019-01-24T05:57:47.602Z,30.12
2019-01-24T06:00:23.685Z,29.87
2019-01-24T06:02:53.071Z,35.08
2019-01-24T06:05:22.507Z,29.35
2019-01-24T06:07:51.631Z,29.70
2019-01-24T06:10:20.732Z,30.43
2019-01-24T06:12:49.798Z,29.63
2019-01-24T06:15:19.593Z,28.95
2019-01-24T06:17:48.662Z,35.50
2019-01-24T06:20:17.744Z,33.73
2019-01-24T06:22:46.864Z,30.55
2019-01-24T06:25:16.210Z,32.30
2019-01-24T06:27:45.278Z,30.60
2019-01-24T06:30:18.921Z,33.95
2019-01-24T06:32:48.251Z,38.92
2019-01-24T06:35:17.352Z,37.63
2019-01-24T06:37:48.423Z,29.42
2019-01-24T06:40:19.238Z,32.00
2019-01-24T06:42:48.676Z,32.75
2019-01-24T06:45:23.029Z,29.10
2019-01-24T06:47:52.104Z,34.67
2019-01-24T06:50:21.211Z,32.13
2019-01-24T06:52:50.616Z,31.23
2019-01-24T06:55:26.612Z,32.63
2019-01-24T06:57:55.905Z,32.78
2019-01-24T07:00:24.975Z,34.55
2019-01-24T07:02:54.055Z,35.13
2019-01-24T07:05:23.213Z,35.28
2019-01-24T07:07:52.286Z,36.10
2019-01-24T07:10:24.280Z,35.28
2019-01-24T07:12:53.397Z,35.17
2019-01-24T07:15:23.778Z,35.55
2019-01-24T07:17:53.177Z,35.45
2019-01-24T07:20:22.686Z,35.95
2019-01-24T07:22:51.752Z,34.70
2019-01-24T07:25:24.692Z,32.70
2019-01-24T07:27:54.055Z,34.90
2019-01-24T07:30:23.153Z,34.97
2019-01-24T07:32:52.235Z,35.60
2019-01-24T07:35:22.333Z,35.63
2019-01-24T07:37:51.406Z,33.83
2019-01-24T07:40:21.308Z,33.57
2019-01-24T07:42:50.627Z,33.50
2019-01-24T07:45:30.112Z,31.87
2019-01-24T07:47:59.190Z,34.37
2019-01-24T07:50:28.527Z,33.30
2019-01-24T07:52:57.571Z,33.53
2019-01-24T07:55:26.661Z,34.63
2019-01-24T07:57:55.700Z,34.47
2019-01-24T08:00:30.216Z,32.13
2019-01-24T08:02:59.304Z,33.30
2019-01-24T08:05:31.269Z,31.30
2019-01-24T08:08:00.583Z,33.77
2019-01-24T08:10:29.700Z,34.33
2019-01-24T08:12:58.739Z,33.30
2019-01-24T08:15:29.155Z,34.93
2019-01-24T08:17:58.448Z,33.33
2019-01-24T08:20:28.814Z,31.57
2019-01-24T08:22:57.849Z,33.70
2019-01-24T08:25:26.954Z,32.67
2019-01-24T08:27:56.066Z,33.87
2019-01-24T08:30:31.681Z,34.00
2019-01-24T08:33:00.713Z,35.03
2019-01-24T08:35:29.767Z,33.17
2019-01-24T08:37:58.935Z,33.27
2019-01-24T08:40:27.975Z,33.33
2019-01-24T08:42:57.331Z,32.97
2019-01-24T08:45:26.736Z,34.13
2019-01-24T08:47:58.540Z,32.70
2019-01-24T08:50:29.366Z,34.67
2019-01-24T08:52:58.454Z,33.70
2019-01-24T08:55:34.180Z,32.50
2019-01-24T08:58:03.534Z,34.60
2019-01-24T09:00:32.569Z,34.90
2019-01-24T09:03:01.603Z,33.03
2019-01-24T09:05:30.961Z,33.13
2019-01-24T09:08:00.263Z,33.30
2019-01-24T09:10:37.826Z,33.90
2019-01-24T09:13:07.196Z,33.50
2019-01-24T09:15:36.897Z,33.60
2019-01-24T09:18:06.072Z,34.23
2019-01-24T09:20:35.104Z,33.23
2019-01-24T09:23:04.570Z,34.07
2019-01-24T09:25:36.576Z,32.47
2019-01-24T09:28:05.630Z,32.80
2019-01-24T09:30:34.720Z,32.77
2019-01-24T09:33:03.840Z,31.17
2019-01-24T09:35:32.882Z,32.63
2019-01-24T09:38:04.643Z,32.87
2019-01-24T09:40:34.105Z,31.77
2019-01-24T09:43:03.499Z,32.80
2019-01-24T09:45:32.565Z,32.50
2019-01-24T09:48:01.655Z,33.20
2019-01-24T09:50:30.717Z,32.70
2019-01-24T09:52:59.775Z,30.93
2019-01-24T09:55:29.192Z,32.70
2019-01-24T09:57:58.212Z,31.67
2019-01-24T10:00:31.114Z,31.03
2019-01-24T10:03:00.541Z,31.30
2019-01-24T10:05:29.587Z,31.00
2019-01-24T10:07:58.632Z,28.77
2019-01-24T10:10:29.162Z,31.00
2019-01-24T10:12:58.848Z,31.57
2019-01-24T10:15:28.144Z,32.50
2019-01-24T10:17:57.263Z,31.87
2019-01-24T10:20:28.300Z,32.10
2019-01-24T10:22:57.388Z,32.53
2019-01-24T10:25:33.350Z,34.23
2019-01-24T10:28:02.751Z,34.13
2019-01-24T10:30:31.849Z,32.50
2019-01-24T10:33:01.562Z,32.67
2019-01-24T10:35:30.631Z,31.90
2019-01-24T10:37:59.961Z,31.63
2019-01-24T10:40:32.440Z,33.53
2019-01-24T10:43:01.934Z,31.83
2019-01-24T10:45:30.981Z,31.83
2019-01-24T10:48:00.345Z,31.50
2019-01-24T10:50:29.925Z,33.37
2019-01-24T10:52:58.984Z,33.37
2019-01-24T10:55:28.826Z,33.03
2019-01-24T10:58:00.596Z,32.37
2019-01-24T11:00:38.895Z,33.40
2019-01-24T11:03:10.877Z,31.97
2019-01-24T11:05:39.890Z,30.93
2019-01-24T11:08:08.985Z,31.30
2019-01-24T11:10:38.050Z,31.53
2019-01-24T11:13:07.110Z,31.17
2019-01-24T11:15:36.216Z,32.07
2019-01-24T11:18:06.804Z,32.33
2019-01-24T11:20:35.859Z,31.63
2019-01-24T11:23:05.031Z,31.37
2019-01-24T11:25:34.078Z,31.33
2019-01-24T11:28:03.140Z,31.83
2019-01-24T11:30:32.329Z,30.40
2019-01-24T11:33:01.402Z,32.10
2019-01-24T11:35:37.308Z,32.33
2019-01-24T11:38:07.220Z,31.60
2019-01-24T11:40:36.497Z,33.07
2019-01-24T11:43:05.789Z,32.73
2019-01-24T11:45:38.738Z,33.27
2019-01-24T11:48:08.140Z,31.73
2019-01-24T11:50:37.238Z,30.77
2019-01-24T11:53:09.125Z,30.50
2019-01-24T11:55:38.244Z,29.87
2019-01-24T11:58:07.519Z,31.80
2019-01-24T12:00:40.252Z,33.40
2019-01-24T12:03:09.641Z,32.10
2019-01-24T12:05:38.879Z,31.30
2019-01-24T12:08:10.885Z,33.27
2019-01-24T12:10:40.223Z,32.47
2019-01-24T12:13:09.330Z,31.67
2019-01-24T12:15:38.425Z,33.03
2019-01-24T12:18:07.477Z,32.10
2019-01-24T12:20:36.559Z,31.50
2019-01-24T12:23:05.611Z,31.67
2019-01-24T12:25:34.655Z,32.60
2019-01-24T12:28:03.742Z,32.77
2019-01-24T12:30:35.730Z,32.37
2019-01-24T12:33:05.953Z,31.17
2019-01-24T12:35:35.044Z,33.27
2019-01-24T12:38:04.560Z,31.53
2019-01-24T12:40:33.629Z,31.70
2019-01-24T12:43:03.039Z,31.37
2019-01-24T12:45:35.840Z,32.03
2019-01-24T12:48:05.733Z,31.97
2019-01-24T12:50:34.833Z,30.03
2019-01-24T12:53:03.877Z,31.23
2019-01-24T12:55:32.972Z,31.73
2019-01-24T12:58:02.051Z,31.97
2019-01-24T13:00:34.803Z,31.17
2019-01-24T13:03:04.339Z,31.07
2019-01-24T13:05:33.655Z,31.73
2019-01-24T13:08:02.709Z,32.27
2019-01-24T13:10:31.996Z,31.20
2019-01-24T13:13:01.427Z,31.43
2019-01-24T13:15:34.380Z,31.43
2019-01-24T13:18:04.206Z,32.33
2019-01-24T13:20:33.550Z,32.80
2019-01-24T13:23:02.907Z,34.20
2019-01-24T13:25:33.805Z,32.57
2019-01-24T13:28:02.933Z,31.27
2019-01-24T13:30:33.775Z,33.63
2019-01-24T13:33:03.271Z,31.67
2019-01-24T13:35:32.397Z,31.37
2019-01-24T13:38:01.686Z,31.17
2019-01-24T13:40:31.758Z,30.53
2019-01-24T13:43:01.226Z,31.73
2019-01-24T13:45:33.772Z,31.20
2019-01-24T13:48:02.822Z,30.53
2019-01-24T13:50:31.970Z,32.33
2019-01-24T13:53:01.406Z,32.07
2019-01-24T13:55:30.767Z,32.57
2019-01-24T13:57:59.864Z,32.87
2019-01-24T14:00:33.283Z,34.30
2019-01-24T14:03:09.977Z,33.10
2019-01-24T14:05:39.018Z,32.53
2019-01-24T14:08:08.201Z,30.20
2019-01-24T14:10:37.628Z,32.47
2019-01-24T14:13:07.037Z,30.80
2019-01-24T14:15:36.105Z,31.97
2019-01-24T14:18:05.795Z,30.47
2019-01-24T14:20:35.147Z,30.93
2019-01-24T14:23:04.555Z,30.67
2019-01-24T14:25:33.645Z,32.30
2019-01-24T14:28:02.719Z,32.20
2019-01-24T14:30:31.757Z,31.13
2019-01-24T14:33:00.883Z,31.03
2019-01-24T14:35:29.919Z,34.00
2019-01-24T14:37:59.021Z,30.87
2019-01-24T14:40:28.176Z,31.00
2019-01-24T14:42:57.250Z,31.10
2019-01-24T14:45:27.937Z,31.33
2019-01-24T14:47:57.028Z,30.77
2019-01-24T14:50:31.192Z,30.97
2019-01-24T14:53:00.231Z,30.87
2019-01-24T14:55:29.630Z,30.07
2019-01-24T14:57:59.081Z,30.80
2019-01-24T15:00:31.898Z,34.20
2019-01-24T15:03:01.226Z,32.10
2019-01-24T15:05:30.263Z,32.17
2019-01-24T15:07:59.625Z,32.20
2019-01-24T15:10:28.715Z,30.53
2019-01-24T15:12:58.141Z,32.03
2019-01-24T15:15:27.180Z,33.03
2019-01-24T15:17:56.652Z,31.10
2019-01-24T15:20:27.304Z,30.87
2019-01-24T15:22:56.347Z,34.10
2019-01-24T15:25:25.468Z,31.07
2019-01-24T15:27:54.830Z,31.33
2019-01-24T15:30:28.002Z,32.30
2019-01-24T15:32:57.140Z,31.33
2019-01-24T15:35:26.421Z,31.67
2019-01-24T15:37:55.468Z,31.40
2019-01-24T15:40:33.498Z,32.63
2019-01-24T15:43:02.690Z,31.63
2019-01-24T15:45:31.931Z,34.27
2019-01-24T15:48:01.054Z,32.83
2019-01-24T15:50:30.111Z,31.77
2019-01-24T15:52:59.203Z,31.93
2019-01-24T15:55:28.310Z,29.83
2019-01-24T15:58:00.264Z,29.23
2019-01-24T16:00:33.137Z,28.60
2019-01-24T16:03:02.228Z,27.93
2019-01-24T16:05:31.343Z,26.75
2019-01-24T16:08:01.920Z,29.10
2019-01-24T16:10:31.567Z,28.73
2019-01-24T16:13:00.889Z,30.02
2019-01-24T16:15:35.943Z,28.67
2019-01-24T16:18:08.513Z,27.65
2019-01-24T16:20:37.628Z,28.67
2019-01-24T16:23:06.766Z,32.25
2019-01-24T16:25:36.801Z,30.52
2019-01-24T16:28:05.932Z,28.50
2019-01-24T16:30:36.493Z,26.85
2019-01-24T16:33:08.004Z,26.57
2019-01-24T16:35:40.109Z,27.77
2019-01-24T16:38:09.879Z,30.23
2019-01-24T16:40:39.160Z,29.30
2019-01-24T16:43:08.211Z,27.77
2019-01-24T16:45:37.354Z,27.42
2019-01-24T16:48:06.493Z,28.02
2019-01-24T16:50:35.572Z,31.27
2019-01-24T16:53:05.039Z,32.90
2019-01-24T16:55:34.134Z,32.93
2019-01-24T16:58:03.206Z,35.25
2019-01-24T17:00:42.799Z,34.90
2019-01-24T17:03:15.098Z,29.32
2019-01-24T17:05:44.270Z,30.68
2019-01-24T17:08:16.601Z,28.50
2019-01-24T17:10:44.600Z,27.80
2019-01-24T17:13:13.665Z,26.82
2019-01-24T17:15:42.860Z,27.55
2019-01-24T17:18:11.984Z,30.95
2019-01-24T17:20:41.084Z,28.57
2019-01-24T17:23:10.237Z,31.50
2019-01-24T17:25:39.312Z,26.95
2019-01-24T17:28:08.646Z,28.57
2019-01-24T17:30:37.762Z,26.55
2019-01-24T17:33:07.206Z,28.23
2019-01-24T17:35:36.301Z,28.65
2019-01-24T17:38:05.418Z,28.47
2019-01-24T17:40:35.789Z,27.73
2019-01-24T17:43:05.838Z,29.25
2019-01-24T17:45:35.298Z,27.98
2019-01-24T17:48:05.305Z,27.77
2019-01-24T17:50:34.372Z,28.92
2019-01-24T17:53:03.493Z,28.70
2019-01-24T17:55:39.648Z,29.95
2019-01-24T17:58:09.885Z,29.50
2019-01-24T18:00:40.598Z,28.95
2019-01-24T18:03:09.803Z,27.13
2019-01-24T18:05:38.913Z,28.10
2019-01-24T18:08:08.016Z,27.60
2019-01-24T18:10:37.126Z,31.02
2019-01-24T18:13:06.249Z,32.65
2019-01-24T18:15:36.891Z,36.70
2019-01-24T18:18:12.614Z,33.90
2019-01-24T18:20:41.691Z,33.70
2019-01-24T18:23:11.500Z,35.10
2019-01-24T18:25:40.625Z,35.13
2019-01-24T18:28:11.617Z,36.85
2019-01-24T18:30:41.020Z,40.00
2019-01-24T18:33:10.137Z,41.13
2019-01-24T18:35:39.215Z,39.15
2019-01-24T18:38:08.772Z,36.53
2019-01-24T18:40:38.162Z,35.92
2019-01-24T18:43:12.339Z,35.73
2019-01-24T18:45:54.342Z,34.35
2019-01-24T18:48:23.423Z,33.85
2019-01-24T18:50:52.523Z,34.43
2019-01-24T18:53:21.888Z,34.25
2019-01-24T18:55:50.986Z,33.63
2019-01-24T18:58:20.059Z,35.68
2019-01-24T19:00:49.534Z,36.63
2019-01-24T19:03:18.653Z,34.67
2019-01-24T19:05:47.733Z,35.20
2019-01-24T19:08:16.846Z,35.05
2019-01-24T19:10:46.207Z,35.10
2019-01-24T19:13:15.323Z,36.93
2019-01-24T19:15:45.108Z,35.48
2019-01-24T19:18:14.196Z,37.23
2019-01-24T19:20:43.261Z,37.00
2019-01-24T19:23:12.426Z,37.73
2019-01-24T19:25:41.499Z,38.60
2019-01-24T19:28:10.579Z,38.30
2019-01-24T19:30:39.718Z,39.00
2019-01-24T19:33:08.794Z,39.20
2019-01-24T19:35:39.553Z,35.50
2019-01-24T19:38:08.684Z,35.10
2019-01-24T19:40:37.748Z,35.55
2019-01-24T19:43:06.884Z,35.90
2019-01-24T19:45:36.010Z,37.13
2019-01-24T19:48:05.246Z,36.42
2019-01-24T19:50:34.596Z,36.40
2019-01-24T19:53:04.104Z,37.23
2019-01-24T19:55:33.198Z,36.03
2019-01-24T19:58:02.265Z,35.52
2019-01-24T20:00:33.260Z,34.65
2019-01-24T20:03:02.363Z,35.85
2019-01-24T20:05:31.763Z,35.83
2019-01-24T20:08:01.019Z,36.33
2019-01-24T20:10:31.251Z,34.35
2019-01-24T20:13:00.322Z,35.83
2019-01-24T20:15:33.911Z,36.38
2019-01-24T20:18:03.242Z,35.63
2019-01-24T20:20:32.307Z,35.70
2019-01-24T20:23:01.761Z,34.63
2019-01-24T20:25:32.338Z,35.68
2019-01-24T20:28:01.694Z,35.50
2019-01-24T20:30:32.837Z,36.13
2019-01-24T20:33:02.650Z,36.03
2019-01-24T20:35:51.174Z,36.00
2019-01-24T20:38:20.243Z,35.23
2019-01-24T20:40:49.705Z,35.55
2019-01-24T20:43:18.888Z,36.63
2019-01-24T20:45:48.278Z,37.53
2019-01-24T20:48:17.682Z,34.20
2019-01-24T20:50:46.802Z,35.05
2019-01-24T20:53:15.870Z,35.50
2019-01-24T20:55:44.948Z,34.83
2019-01-24T20:58:14.071Z,34.25
2019-01-24T21:00:43.149Z,34.98
2019-01-24T21:03:14.770Z,35.52
2019-01-24T21:05:44.308Z,33.70
2019-01-24T21:08:13.373Z,35.03
2019-01-24T21:10:42.444Z,36.03
2019-01-24T21:13:11.941Z,36.58
2019-01-24T21:15:41.314Z,34.35
2019-01-24T21:18:10.706Z,35.30
2019-01-24T21:20:39.824Z,35.73
2019-01-24T21:23:08.893Z,36.10
2019-01-24T21:25:38.299Z,35.92
2019-01-24T21:28:07.413Z,34.70
2019-01-24T21:30:38.051Z,36.20
2019-01-24T21:33:08.118Z,35.75
2019-01-24T21:35:37.548Z,36.70
2019-01-24T21:38:08.383Z,36.15
2019-01-24T21:40:37.487Z,35.25
2019-01-24T21:43:06.882Z,34.70
2019-01-24T21:45:38.877Z,35.92
2019-01-24T21:48:08.773Z,36.15
2019-01-24T21:50:38.146Z,36.25
2019-01-24T21:53:07.600Z,35.65
2019-01-24T21:55:36.959Z,36.00
2019-01-24T21:58:06.482Z,35.95
2019-01-24T22:00:35.558Z,36.23
2019-01-24T22:03:05.400Z,37.48
2019-01-24T22:05:34.540Z,35.48
2019-01-24T22:08:03.682Z,35.98
2019-01-24T22:10:33.101Z,37.48
2019-01-24T22:13:02.494Z,35.60
2019-01-24T22:15:31.576Z,36.70
2019-01-24T22:18:00.703Z,35.88
2019-01-24T22:20:29.814Z,36.20
2019-01-24T22:22:58.923Z,31.50
2019-01-24T22:25:32.273Z,31.33
2019-01-24T22:28:01.454Z,30.20
2019-01-24T22:30:36.532Z,31.65
2019-01-24T22:33:06.954Z,31.12
2019-01-24T22:35:36.056Z,34.45
2019-01-24T22:38:06.734Z,32.17
2019-01-24T22:40:35.974Z,34.18
2019-01-24T22:43:05.988Z,33.98
2019-01-24T22:45:35.061Z,33.63
2019-01-24T22:48:05.509Z,34.53
2019-01-24T22:50:34.601Z,31.85
2019-01-24T22:53:04.005Z,32.80
2019-01-24T22:55:33.370Z,33.83
2019-01-24T22:58:02.432Z,34.27
2019-01-24T23:00:55.322Z,35.70
2019-01-24T23:03:34.911Z,34.20
2019-01-24T23:06:04.141Z,32.85
2019-01-24T23:08:33.194Z,33.95
2019-01-24T23:11:02.267Z,35.03
2019-01-24T23:13:31.406Z,31.60
2019-01-24T23:16:00.789Z,31.87
2019-01-24T23:18:30.184Z,31.65
2019-01-24T23:20:59.556Z,33.78
2019-01-24T23:23:28.988Z,35.08
2019-01-24T23:25:58.093Z,33.45
2019-01-24T23:28:27.232Z,33.90
2019-01-24T23:30:56.367Z,33.10
2019-01-24T23:33:25.443Z,32.98
2019-01-24T23:35:54.560Z,31.30
2019-01-24T23:38:23.668Z,32.65
2019-01-24T23:40:53.048Z,31.82
2019-01-24T23:43:22.208Z,32.90
2019-01-24T23:45:51.632Z,31.68
2019-01-24T23:48:20.946Z,32.33
2019-01-24T23:50:50.347Z,30.57
2019-01-24T23:53:19.752Z,30.40
2019-01-24T23:55:48.823Z,32.55
2019-01-24T23:58:17.941Z,31.20
